Time;durP1;ratioP1;P1;durP2;ratioP2;P2;SDS_P1;SDS_P2;PMS_P1;PMS_P2;Temp;Humidity;BMP_temperature;BMP_pressure;BME280_temperature;BME280_humidity;BME280_pressure;Samples;Min_cycle;Max_cycle;Signal;HPM_P1;HPM_P2
2022/07/12 07:00:31;;;;;;;2.58;2.38;;;;;;;;;;10602133;27;20040;-87
2022/07/12 07:05:47;;;;;;;2.00;1.65;;;;;;;;;;10637697;28;20034;-82
2022/07/12 07:10:48;;;;;;;4.88;2.63;;;;;;;;;;10614080;28;20074;-84
2022/07/12 07:21:28;;;;;;;2.67;2.20;;;;;;;;;;10604195;28;20020;-84
2022/07/12 07:32:05;;;;;;;3.90;3.60;;;;;;;;;;10520338;28;20032;-85
2022/07/12 07:37:38;;;;;;;3.13;2.50;;;;;;;;;;10517376;28;20027;-85
2022/07/12 07:43:16;;;;;;;2.60;1.90;;;;;;;;;;10504438;28;20111;-84
2022/07/12 07:48:45;;;;;;;4.20;3.63;;;;;;;;;;10609205;28;20562;-84
2022/07/12 07:54:26;;;;;;;4.97;3.63;;;;;;;;;;10597878;28;20035;-84
2022/07/12 07:59:31;;;;;;;2.60;2.30;;;;;;;;;;10587308;28;20027;-85
2022/07/12 08:04:32;;;;;;;2.20;1.70;;;;;;;;;;10610453;28;20039;-85
2022/07/12 08:09:43;;;;;;;2.67;2.20;;;;;;;;;;10608594;28;20039;-84
2022/07/12 08:20:26;;;;;;;2.50;1.90;;;;;;;;;;10610461;28;20136;-86
2022/07/12 08:25:37;;;;;;;2.03;1.67;;;;;;;;;;10604282;28;20028;-85
2022/07/12 08:31:05;;;;;;;2.65;2.10;;;;;;;;;;10631977;27;20047;-84
2022/07/12 08:36:23;;;;;;;2.35;1.30;;;;;;;;;;10580332;28;20091;-86
2022/07/12 08:41:51;;;;;;;1.75;1.38;;;;;;;;;;10540817;28;20063;-85
2022/07/12 09:03:39;;;;;;;2.65;1.55;;;;;;;;;;10520680;28;20044;-84
2022/07/12 09:08:59;;;;;;;3.53;2.20;;;;;;;;;;10522929;28;20070;-84
2022/07/12 09:14:02;;;;;;;4.40;2.00;;;;;;;;;;10589806;28;20080;-85
2022/07/12 09:19:14;;;;;;;4.68;2.60;;;;;;;;;;10622208;28;20012;-85
2022/07/12 09:24:16;;;;;;;2.40;1.60;;;;;;;;;;10626428;28;20024;-84
2022/07/12 09:29:18;;;;;;;2.72;1.58;;;;;;;;;;10617081;28;20054;-85
2022/07/12 09:39:39;;;;;;;2.10;1.65;;;;;;;;;;10620033;28;20016;-84
2022/07/12 09:44:41;;;;;;;2.20;1.40;;;;;;;;;;10626374;28;20028;-84
2022/07/12 09:55:17;;;;;;;2.33;1.73;;;;;;;;;;10552332;28;20028;-82
2022/07/12 10:00:18;;;;;;;2.20;2.00;;;;;;;;;;10549786;28;20027;-82
2022/07/12 10:05:20;;;;;;;2.28;1.33;;;;;;;;;;10547115;28;20048;-82
2022/07/12 10:10:23;;;;;;;2.35;1.50;;;;;;;;;;10548971;28;20118;-82
2022/07/12 10:15:26;;;;;;;2.15;1.75;;;;;;;;;;10550490;28;20398;-81
2022/07/12 10:20:27;;;;;;;2.45;1.23;;;;;;;;;;10549702;28;20087;-79
2022/07/12 10:25:32;;;;;;;2.05;1.60;;;;;;;;;;10548643;28;20488;-82
2022/07/12 10:30:42;;;;;;;2.58;1.95;;;;;;;;;;10549198;28;20059;-80
2022/07/12 10:35:43;;;;;;;;;;;;;;;;;;10564867;28;20017;-81
2022/07/12 10:40:45;;;;;;;2.53;1.80;;;;;;;;;;10552493;28;19904;-81
2022/07/12 10:45:47;;;;;;;1.90;1.60;;;;;;;;;;10552973;28;20069;-81
2022/07/12 10:50:51;;;;;;;2.03;1.55;;;;;;;;;;10555829;28;20361;-81
2022/07/12 10:56:05;;;;;;;2.13;1.40;;;;;;;;;;10556048;28;20020;-81
2022/07/12 11:01:09;;;;;;;2.03;1.40;;;;;;;;;;10558135;28;20047;-81
2022/07/12 11:06:12;;;;;;;1.95;1.40;;;;;;;;;;10555576;28;20051;-80
2022/07/12 11:11:13;;;;;;;3.55;1.85;;;;;;;;;;10557987;28;20155;-80
2022/07/12 11:16:16;;;;;;;5.32;1.50;;;;;;;;;;10556288;28;20511;-81
2022/07/12 11:21:21;;;;;;;3.13;1.40;;;;;;;;;;10554974;28;20020;-81
2022/07/12 11:26:28;;;;;;;2.67;1.50;;;;;;;;;;10555620;28;20055;-82
2022/07/12 11:31:33;;;;;;;2.80;1.60;;;;;;;;;;10555988;28;20504;-83
2022/07/12 11:36:34;;;;;;;2.05;1.60;;;;;;;;;;10537854;28;20092;-81
2022/07/12 11:41:35;;;;;;;2.45;1.48;;;;;;;;;;10559998;28;20384;-82
2022/07/12 11:46:37;;;;;;;2.33;1.20;;;;;;;;;;10555136;28;20024;-84
2022/07/12 11:51:38;;;;;;;2.80;1.40;;;;;;;;;;10553156;28;20032;-83
2022/07/12 11:56:40;;;;;;;2.28;1.50;;;;;;;;;;10554096;28;20040;-82
2022/07/12 12:01:42;;;;;;;1.98;1.73;;;;;;;;;;10537529;28;20028;-82
2022/07/12 12:06:46;;;;;;;2.13;1.42;;;;;;;;;;10577014;28;20012;-81
2022/07/12 12:11:49;;;;;;;3.35;1.50;;;;;;;;;;10558389;28;20134;-82
2022/07/12 12:16:50;;;;;;;4.25;2.10;;;;;;;;;;10554377;28;20028;-82
2022/07/12 12:21:51;;;;;;;4.38;2.53;;;;;;;;;;10552626;28;20358;-81
2022/07/12 12:26:52;;;;;;;3.53;1.60;;;;;;;;;;10552824;28;20119;-81
2022/07/12 12:31:59;;;;;;;3.65;1.30;;;;;;;;;;10566383;28;20000;-80
2022/07/12 12:37:06;;;;;;;2.65;1.67;;;;;;;;;;10556413;28;20054;-81
2022/07/12 12:42:08;;;;;;;4.25;2.40;;;;;;;;;;10552742;28;20032;-81
2022/07/12 12:53:13;;;;;;;5.67;1.87;;;;;;;;;;10574135;28;20024;-81
2022/07/12 12:58:43;;;;;;;2.70;1.65;;;;;;;;;;10572077;28;20085;-81
2022/07/12 13:04:25;;;;;;;4.18;1.60;;;;;;;;;;10529934;28;20056;-81
2022/07/12 13:09:28;;;;;;;4.00;1.88;;;;;;;;;;10563780;28;20083;-80
2022/07/12 13:14:30;;;;;;;3.05;1.75;;;;;;;;;;10564948;28;20091;-80
2022/07/12 13:19:39;;;;;;;3.13;1.80;;;;;;;;;;10563816;28;20040;-80
2022/07/12 13:30:20;;;;;;;3.53;1.90;;;;;;;;;;10564691;28;20115;-81
2022/07/12 13:35:22;;;;;;;4.22;2.53;;;;;;;;;;10559522;28;20505;-80
2022/07/12 13:40:40;;;;;;;2.58;1.70;;;;;;;;;;10561987;28;20024;-81
2022/07/12 13:45:44;;;;;;;2.83;1.75;;;;;;;;;;10545648;28;20020;-81
2022/07/12 13:50:46;;;;;;;7.90;5.57;;;;;;;;;;10545527;28;20028;-81
2022/07/12 13:55:48;;;;;;;4.78;1.92;;;;;;;;;;10548308;28;20029;-82
2022/07/12 14:00:49;;;;;;;2.50;1.85;;;;;;;;;;10549149;28;20410;-82
2022/07/12 14:05:50;;;;;;;4.85;3.08;;;;;;;;;;10546558;28;20032;-81
2022/07/12 14:10:52;;;;;;;6.45;2.88;;;;;;;;;;10544261;28;20029;-81
2022/07/12 14:15:53;;;;;;;5.10;3.30;;;;;;;;;;10547844;28;20520;-81
2022/07/12 14:20:54;;;;;;;3.13;1.65;;;;;;;;;;10555190;28;20079;-81
2022/07/12 14:25:55;;;;;;;2.65;1.95;;;;;;;;;;10562063;28;20036;-82
2022/07/12 14:31:00;;;;;;;3.40;2.10;;;;;;;;;;10579054;28;20031;-81
2022/07/12 14:36:01;;;;;;;3.47;2.28;;;;;;;;;;10557642;28;20028;-83
2022/07/12 14:41:02;;;;;;;3.45;2.60;;;;;;;;;;10557545;28;20114;-81
2022/07/12 14:46:03;;;;;;;12.98;9.57;;;;;;;;;;10578341;28;20092;-82
2022/07/12 14:51:04;;;;;;;4.93;3.40;;;;;;;;;;10575879;28;20027;-81
2022/07/12 14:56:05;;;;;;;6.75;3.17;;;;;;;;;;10575464;28;20054;-80
2022/07/12 15:01:07;;;;;;;3.72;2.63;;;;;;;;;;10575938;28;20043;-81
2022/07/12 15:06:08;;;;;;;4.28;2.78;;;;;;;;;;10563004;28;20118;-81
2022/07/12 15:11:09;;;;;;;5.22;3.17;;;;;;;;;;10563710;28;20055;-81
2022/07/12 15:16:10;;;;;;;8.57;3.78;;;;;;;;;;10553697;28;20035;-82
2022/07/12 15:21:11;;;;;;;5.78;3.15;;;;;;;;;;10552995;28;20124;-81
2022/07/12 15:26:13;;;;;;;4.13;2.67;;;;;;;;;;10553529;28;20103;-81
2022/07/12 15:31:23;;;;;;;6.75;3.90;;;;;;;;;;10561636;28;20032;-80
2022/07/12 15:36:24;;;;;;;9.13;7.22;;;;;;;;;;10553137;28;20053;-81
2022/07/12 15:41:25;;;;;;;3.85;3.00;;;;;;;;;;10550109;28;20134;-82
2022/07/12 15:46:27;;;;;;;5.93;4.28;;;;;;;;;;10549584;28;20421;-81
2022/07/12 16:08:41;;;;;;;2.97;2.20;;;;;;;;;;10484323;28;20037;-85
2022/07/12 16:13:56;;;;;;;3.67;2.30;;;;;;;;;;10483141;28;20024;-84
2022/07/12 16:18:57;;;;;;;3.40;2.40;;;;;;;;;;10482519;28;20431;-83
2022/07/12 16:24:00;;;;;;;3.72;2.50;;;;;;;;;;10494964;28;20163;-85
2022/07/12 17:34:39;;;;;;;2.78;2.10;;;;;;;;;;10491815;28;20494;-84
2022/07/12 17:40:18;;;;;;;3.83;1.90;;;;;;;;;;10404132;28;20056;-85
2022/07/12 19:15:22;;;;;;;3.22;2.30;;;;;;;;;;10676784;27;20051;-85
